Mn Pelican — FMLR — position and weather

sailwx.info

Track history (hours):
 
Tides and Currents Weather Stations Pressure Air Temp Water Temp Dewpoint Dewpoint Depression Visibility Wind Speed Wind Dir Waves Ship Positions

Mn Pelican

Last reported at 2015-May-29 01:29 UTC. Time now 2015-May-29 04:19 UTC.
Position N 42°52' E 009°58'.

Length 155 m; draft 6.6 m.

Type: Ship. MMSI: 228315700.

Date/timePositionNaut miles runAvg speedWind from/ knotsBaromVisibWave heightAir tempDewpointWater temp
2015-May-29 01:29N 42°52' E 009°58'1920.4
2015-May-29 00:33N 43°10' E 010°04'2020.0
2015-May-28 23:34N 43°29' E 010°12'7 7.2
2015-May-28 22:31N 43°34' E 010°19'0 0.0
2015-May-28 21:31N 43°34' E 010°19'0 0.0
2015-May-28 20:33N 43°34' E 010°19'0 0.0
2015-May-28 19:33N 43°34' E 010°19'0 0.0
2015-May-28 18:33N 43°34' E 010°19'0 0.0
2015-May-28 17:32N 43°34' E 010°19'0 0.0
2015-May-28 16:32N 43°34' E 010°19'0 0.0
2015-May-28 15:33N 43°34' E 010°19'0 0.3
2015-May-28 14:33N 43°34' E 010°19'6 5.7
2015-May-28 13:33N 43°30' E 010°14'1919.3
2015-May-28 12:33N 43°12' E 010°04'2020.1
2015-May-28 11:33N 42°52' E 009°57'2020.0
2015-May-28 10:33N 42°32' E 009°53'11 0.6
2015-May-27 15:33N 42°44' E 009°55'2120.8
2015-May-27 14:33N 43°04' E 010°02'2120.6
2015-May-27 13:33N 43°23' E 010°10'1312.5
2015-May-27 12:32N 43°34' E 010°19'0 0.0
2015-May-27 11:32N 43°34' E 010°19'0 0.0
2015-May-27 10:31N 43°34' E 010°19'0 0.0
2015-May-27 09:31N 43°34' E 010°19'0 0.0
2015-May-27 08:33N 43°34' E 010°19'0 0.0
2015-May-27 07:33N 43°34' E 010°19'0 0.0
2015-May-27 06:29N 43°34' E 010°19'0 0.0
2015-May-27 05:33N 43°34' E 010°19'3 2.9
2015-May-27 04:33N 43°32' E 010°17'10 9.7
2015-May-27 03:33N 43°24' E 010°09'1919.2
2015-May-27 02:33N 43°05' E 010°02'2019.2
2015-May-27 01:30N 42°46' E 009°55'11118.0
2015-May-26 19:20N 40°55' E 009°35'2 2.2
2015-May-26 18:22N 40°56' E 009°32'0 0.0
2015-May-26 17:30N 40°56' E 009°32'0 0.0
2015-May-26 16:24N 40°56' E 009°32'0 0.0
2015-May-26 15:32N 40°56' E 009°32'0 0.0
2015-May-26 14:26N 40°56' E 009°32'0 0.0
2015-May-26 13:32N 40°56' E 009°32'0 0.0
2015-May-26 12:25N 40°56' E 009°32'0 0.0
2015-May-26 11:19N 40°56' E 009°32'0 0.0
2015-May-26 10:30N 40°56' E 009°32'0 0.0
2015-May-26 09:24N 40°56' E 009°32'0 0.0
2015-May-26 08:33N 40°56' E 009°32'0 0.0
2015-May-26 07:33N 40°56' E 009°32'0 0.0
2015-May-26 06:33N 40°56' E 009°32'0 0.0
2015-May-26 05:33N 40°56' E 009°32'5 4.7
2015-May-26 04:33N 40°57' E 009°38'6616.6
2015-May-26 00:33N 42°02' E 009°53'4418.2
2015-May-25 22:08N 42°46' E 009°55'1118.4
2015-May-25 21:33N 42°56' E 009°59'1918.6
2015-May-25 20:33N 43°14' E 010°06'1817.8
2015-May-25 19:33N 43°31' E 010°14'5 4.8
2015-May-25 18:33N 43°34' E 010°19'0 0.0
2015-May-25 17:33N 43°34' E 010°19'0 0.0
2015-May-25 16:33N 43°34' E 010°19'0 0.0
2015-May-25 15:33N 43°34' E 010°19'0 0.0
2015-May-25 14:33N 43°34' E 010°19'0 0.0
2015-May-25 13:33N 43°34' E 010°19'0 0.0
2015-May-25 12:33N 43°34' E 010°19'0 0.0
2015-May-25 11:33N 43°34' E 010°19'0 0.0
2015-May-25 10:33N 43°34' E 010°19'0 0.0
2015-May-25 09:33N 43°34' E 010°19'0 0.0
2015-May-25 08:33N 43°34' E 010°19'0 0.0
2015-May-25 07:33N 43°34' E 010°19'0 0.1
2015-May-25 06:33N 43°35' E 010°19'0 0.0
2015-May-25 05:33N 43°35' E 010°19'0 0.0
2015-May-25 04:33N 43°35' E 010°19'0 0.0
2015-May-25 03:33N 43°35' E 010°19'0 0.0
2015-May-25 02:33N 43°35' E 010°19'0 0.0
2015-May-25 01:33N 43°35' E 010°19'0 0.0
2015-May-25 00:33N 43°35' E 010°19'0 0.0
2015-May-24 23:33N 43°35' E 010°19'0 0.0
2015-May-24 22:33N 43°35' E 010°19'0 0.0
2015-May-24 21:33N 43°35' E 010°19'0 0.0
2015-May-24 20:33N 43°35' E 010°19'0 0.0
2015-May-24 19:33N 43°35' E 010°19'0 0.0
2015-May-24 18:33N 43°35' E 010°19'0 0.0
2015-May-24 17:33N 43°35' E 010°19'0 0.0
2015-May-24 16:33N 43°35' E 010°19'0 0.0
2015-May-24 15:33N 43°35' E 010°19'0 0.0
2015-May-24 14:33N 43°35' E 010°19'0 0.0
2015-May-24 13:33N 43°35' E 010°19'0 0.0
2015-May-24 12:33N 43°35' E 010°19'0 0.0
2015-May-24 11:33N 43°35' E 010°19'0 0.0
2015-May-24 10:33N 43°35' E 010°19'0 0.0
2015-May-24 09:33N 43°35' E 010°19'0 0.0
2015-May-24 08:33N 43°35' E 010°19'0 0.0
2015-May-24 07:33N 43°35' E 010°19'0 0.0
2015-May-24 06:33N 43°35' E 010°19'0 0.0
2015-May-24 05:33N 43°35' E 010°19'0 0.0
2015-May-24 04:33N 43°35' E 010°19'0 0.0
2015-May-24 03:34N 43°35' E 010°19'0 0.0
2015-May-24 02:33N 43°35' E 010°19'0 0.0
2015-May-24 01:33N 43°35' E 010°19'0 0.0
2015-May-24 00:33N 43°35' E 010°19'0 0.0
2015-May-23 23:33N 43°35' E 010°19'0 0.0
2015-May-23 22:33N 43°35' E 010°19'0 0.0
2015-May-23 21:34N 43°35' E 010°19'0 0.0
2015-May-23 20:33N 43°35' E 010°19'0 0.0
2015-May-23 19:33N 43°35' E 010°19'0 0.0
2015-May-23 18:33N 43°35' E 010°19'0 0.0
2015-May-23 17:34N 43°35' E 010°19'0 0.0
2015-May-23 16:33N 43°35' E 010°19'0 0.0
2015-May-23 15:34N 43°35' E 010°19'0 0.0
2015-May-23 14:34N 43°35' E 010°19'0 0.0
2015-May-23 13:33N 43°35' E 010°19'0 0.0
2015-May-23 12:33N 43°35' E 010°19'0 0.0
2015-May-23 11:34N 43°35' E 010°19'0 0.0
2015-May-23 10:33N 43°35' E 010°19'0 0.0
2015-May-23 09:33N 43°35' E 010°19'0 0.0
2015-May-23 08:33N 43°35' E 010°19'0 0.0
2015-May-23 07:33N 43°35' E 010°19'0 0.0
2015-May-23 06:33N 43°35' E 010°19'0 0.0
2015-May-23 05:34N 43°35' E 010°19'0 0.0
2015-May-23 04:33N 43°35' E 010°19'0 0.0
2015-May-23 03:34N 43°35' E 010°19'0 0.0
2015-May-23 02:33N 43°35' E 010°19'0 0.0
2015-May-23 01:34N 43°35' E 010°19'0 0.0
2015-May-23 00:33N 43°35' E 010°19'0 0.0
2015-May-22 23:34N 43°35' E 010°19'0 0.0
2015-May-22 22:33N 43°35' E 010°19'0 0.0
2015-May-22 21:33N 43°35' E 010°19'0 0.0
2015-May-22 20:33N 43°35' E 010°19'0 0.0
2015-May-22 19:33N 43°35' E 010°19'0 0.0
2015-May-22 18:33N 43°35' E 010°19'0 0.0
2015-May-22 17:34N 43°35' E 010°19'0 0.0
2015-May-22 16:33N 43°35' E 010°19'0 0.0
2015-May-22 15:34N 43°35' E 010°19'0 0.0
2015-May-22 14:34N 43°35' E 010°19'0 0.0
2015-May-22 13:33N 43°35' E 010°19'0 0.0
2015-May-22 12:34N 43°35' E 010°19'0 0.0
2015-May-22 11:34N 43°35' E 010°19'0 0.0
2015-May-22 10:34N 43°35' E 010°19'0 0.0
2015-May-22 09:33N 43°35' E 010°19'0 0.0
2015-May-22 08:34N 43°35' E 010°19'0 0.0
2015-May-22 07:33N 43°35' E 010°19'0 0.0
2015-May-22 06:34N 43°35' E 010°19'0 0.0
2015-May-22 05:34N 43°35' E 010°19'0 0.0
2015-May-22 04:34N 43°35' E 010°19'0 0.0
2015-May-22 03:33N 43°35' E 010°19'0 0.0
2015-May-22 02:34N 43°35' E 010°19'0 0.0
2015-May-22 01:34N 43°35' E 010°19'0 0.0
2015-May-22 00:33N 43°35' E 010°19'0 0.0
2015-May-21 23:34N 43°35' E 010°19'0 0.0
2015-May-21 22:34N 43°35' E 010°19'0 0.0
2015-May-21 21:34N 43°35' E 010°19'0 0.0
2015-May-21 20:34N 43°35' E 010°19'0 0.0
2015-May-21 19:33N 43°35' E 010°19'0 0.0
2015-May-21 18:34N 43°35' E 010°19'0 0.0
2015-May-21 17:34N 43°35' E 010°19'0 0.0
2015-May-21 16:34N 43°35' E 010°19'0 0.0
2015-May-21 15:34N 43°35' E 010°19'0 0.0
2015-May-21 14:34N 43°35' E 010°19'0 0.0
2015-May-21 13:34N 43°35' E 010°19'0 0.0
2015-May-21 12:34N 43°35' E 010°19'0 0.0
2015-May-21 11:33N 43°35' E 010°19'0 0.0
2015-May-21 10:34N 43°35' E 010°19'0 0.4
2015-May-21 09:34N 43°34' E 010°19'5 5.5
2015-May-21 08:33N 43°30' E 010°14'1313.1
2015-May-21 07:34N 43°21' E 010°01'1414.4
2015-May-21 06:34N 43°17' E 009°42'1514.6
2015-May-21 05:33N 43°15' E 009°22'1514.3
2015-May-21 04:30N 43°12' E 009°02'13413.5
2015-May-20 18:34N 43°03' E 005°59'5 5.2
2015-May-20 17:33N 43°06' E 005°54'0 0.0
2015-May-20 16:33N 43°06' E 005°54'0 0.0
2015-May-20 15:32N 43°06' E 005°54'0 0.0
2015-May-20 14:32N 43°06' E 005°54'0 0.0
2015-May-20 13:28N 43°06' E 005°54'0 0.0
2015-May-20 12:31N 43°06' E 005°54'0 0.0
2015-May-20 11:09N 43°06' E 005°54'0 0.0
2015-May-20 10:33N 43°06' E 005°54'0 0.0
2015-May-20 09:33N 43°06' E 005°54'0 0.0
2015-May-20 08:32N 43°06' E 005°54'0 0.0
2015-May-20 07:32N 43°06' E 005°54'0 0.0
2015-May-20 06:31N 43°06' E 005°54'0 0.0
2015-May-20 05:31N 43°06' E 005°54'0 0.0
2015-May-20 04:31N 43°06' E 005°54'0 0.0
2015-May-20 03:33N 43°06' E 005°54'0 0.0
2015-May-20 02:33N 43°06' E 005°54'0 0.0
2015-May-20 01:32N 43°06' E 005°54'0 0.0
2015-May-20 00:32N 43°06' E 005°54'0 0.0
2015-May-19 23:31N 43°06' E 005°54'0 0.0
2015-May-19 22:32N 43°06' E 005°54'0 0.0
2015-May-19 21:31N 43°06' E 005°54'0 0.0
2015-May-19 20:33N 43°06' E 005°54'0 0.0
2015-May-19 19:33N 43°06' E 005°54'0 0.0
2015-May-19 18:32N 43°06' E 005°54'0 0.0
2015-May-19 17:32N 43°06' E 005°54'0 0.0
2015-May-19 16:31N 43°06' E 005°54'0 0.0
2015-May-19 15:31N 43°06' E 005°54'0 0.0
2015-May-19 14:30N 43°06' E 005°54'0 0.0
2015-May-19 13:33N 43°06' E 005°54'0 0.0
2015-May-19 12:33N 43°06' E 005°54'0 0.0
2015-May-19 11:29N 43°06' E 005°54'0 0.0
2015-May-19 10:32N 43°06' E 005°54'0 0.0
2015-May-19 09:31N 43°06' E 005°54'0 0.0
2015-May-19 08:31N 43°06' E 005°54'0 0.0
2015-May-19 07:34N 43°06' E 005°54'0 0.0
2015-May-19 06:33N 43°06' E 005°54'0 0.0
2015-May-19 05:33N 43°06' E 005°54'0 0.0
2015-May-19 04:32N 43°06' E 005°54'0 0.0
2015-May-19 03:32N 43°06' E 005°54'0 0.0
2015-May-19 02:31N 43°06' E 005°54'  
Track history (hours):
 
Tides and Currents Weather Stations Pressure Air Temp Water Temp Dewpoint Dewpoint Depression Visibility Wind Speed Wind Dir Waves Ship Positions

Mn Pelican

Last reported at 2015-May-29 01:29 UTC. Time now 2015-May-29 04:19 UTC.
Position N 42°52' E 009°58'.

Length 155 m; draft 6.6 m.

Type: Ship. MMSI: 228315700.

Date/timePositionNaut miles runAvg speedWind from/ knotsBaromVisibWave heightAir tempDewpointWater temp
2015-May-29 01:29N 42°52' E 009°58'1920.4
2015-May-29 00:33N 43°10' E 010°04'2020.0
2015-May-28 23:34N 43°29' E 010°12'7 7.2
2015-May-28 22:31N 43°34' E 010°19'0 0.0
2015-May-28 21:31N 43°34' E 010°19'0 0.0
2015-May-28 20:33N 43°34' E 010°19'0 0.0
2015-May-28 19:33N 43°34' E 010°19'0 0.0
2015-May-28 18:33N 43°34' E 010°19'0 0.0
2015-May-28 17:32N 43°34' E 010°19'0 0.0
2015-May-28 16:32N 43°34' E 010°19'0 0.0
2015-May-28 15:33N 43°34' E 010°19'0 0.3
2015-May-28 14:33N 43°34' E 010°19'6 5.7
2015-May-28 13:33N 43°30' E 010°14'1919.3
2015-May-28 12:33N 43°12' E 010°04'2020.1
2015-May-28 11:33N 42°52' E 009°57'2020.0
2015-May-28 10:33N 42°32' E 009°53'11 0.6
2015-May-27 15:33N 42°44' E 009°55'2120.8
2015-May-27 14:33N 43°04' E 010°02'2120.6
2015-May-27 13:33N 43°23' E 010°10'1312.5
2015-May-27 12:32N 43°34' E 010°19'0 0.0
2015-May-27 11:32N 43°34' E 010°19'0 0.0
2015-May-27 10:31N 43°34' E 010°19'0 0.0
2015-May-27 09:31N 43°34' E 010°19'0 0.0
2015-May-27 08:33N 43°34' E 010°19'0 0.0
2015-May-27 07:33N 43°34' E 010°19'0 0.0
2015-May-27 06:29N 43°34' E 010°19'0 0.0
2015-May-27 05:33N 43°34' E 010°19'3 2.9
2015-May-27 04:33N 43°32' E 010°17'10 9.7
2015-May-27 03:33N 43°24' E 010°09'1919.2
2015-May-27 02:33N 43°05' E 010°02'2019.2
2015-May-27 01:30N 42°46' E 009°55'11118.0
2015-May-26 19:20N 40°55' E 009°35'2 2.2
2015-May-26 18:22N 40°56' E 009°32'0 0.0
2015-May-26 17:30N 40°56' E 009°32'0 0.0
2015-May-26 16:24N 40°56' E 009°32'0 0.0
2015-May-26 15:32N 40°56' E 009°32'0 0.0
2015-May-26 14:26N 40°56' E 009°32'0 0.0
2015-May-26 13:32N 40°56' E 009°32'0 0.0
2015-May-26 12:25N 40°56' E 009°32'0 0.0
2015-May-26 11:19N 40°56' E 009°32'0 0.0
2015-May-26 10:30N 40°56' E 009°32'0 0.0
2015-May-26 09:24N 40°56' E 009°32'0 0.0
2015-May-26 08:33N 40°56' E 009°32'0 0.0
2015-May-26 07:33N 40°56' E 009°32'0 0.0
2015-May-26 06:33N 40°56' E 009°32'0 0.0
2015-May-26 05:33N 40°56' E 009°32'5 4.7
2015-May-26 04:33N 40°57' E 009°38'6616.6
2015-May-26 00:33N 42°02' E 009°53'4418.2
2015-May-25 22:08N 42°46' E 009°55'1118.4
2015-May-25 21:33N 42°56' E 009°59'1918.6
2015-May-25 20:33N 43°14' E 010°06'1817.8
2015-May-25 19:33N 43°31' E 010°14'5 4.8
2015-May-25 18:33N 43°34' E 010°19'0 0.0
2015-May-25 17:33N 43°34' E 010°19'0 0.0
2015-May-25 16:33N 43°34' E 010°19'0 0.0
2015-May-25 15:33N 43°34' E 010°19'0 0.0
2015-May-25 14:33N 43°34' E 010°19'0 0.0
2015-May-25 13:33N 43°34' E 010°19'0 0.0
2015-May-25 12:33N 43°34' E 010°19'0 0.0
2015-May-25 11:33N 43°34' E 010°19'0 0.0
2015-May-25 10:33N 43°34' E 010°19'0 0.0
2015-May-25 09:33N 43°34' E 010°19'0 0.0
2015-May-25 08:33N 43°34' E 010°19'0 0.0
2015-May-25 07:33N 43°34' E 010°19'0 0.1
2015-May-25 06:33N 43°35' E 010°19'0 0.0
2015-May-25 05:33N 43°35' E 010°19'0 0.0
2015-May-25 04:33N 43°35' E 010°19'0 0.0
2015-May-25 03:33N 43°35' E 010°19'0 0.0
2015-May-25 02:33N 43°35' E 010°19'0 0.0
2015-May-25 01:33N 43°35' E 010°19'0 0.0
2015-May-25 00:33N 43°35' E 010°19'0 0.0
2015-May-24 23:33N 43°35' E 010°19'0 0.0
2015-May-24 22:33N 43°35' E 010°19'0 0.0
2015-May-24 21:33N 43°35' E 010°19'0 0.0
2015-May-24 20:33N 43°35' E 010°19'0 0.0
2015-May-24 19:33N 43°35' E 010°19'0 0.0
2015-May-24 18:33N 43°35' E 010°19'0 0.0
2015-May-24 17:33N 43°35' E 010°19'0 0.0
2015-May-24 16:33N 43°35' E 010°19'0 0.0
2015-May-24 15:33N 43°35' E 010°19'0 0.0
2015-May-24 14:33N 43°35' E 010°19'0 0.0
2015-May-24 13:33N 43°35' E 010°19'0 0.0
2015-May-24 12:33N 43°35' E 010°19'0 0.0
2015-May-24 11:33N 43°35' E 010°19'0 0.0
2015-May-24 10:33N 43°35' E 010°19'0 0.0
2015-May-24 09:33N 43°35' E 010°19'0 0.0
2015-May-24 08:33N 43°35' E 010°19'0 0.0
2015-May-24 07:33N 43°35' E 010°19'0 0.0
2015-May-24 06:33N 43°35' E 010°19'0 0.0
2015-May-24 05:33N 43°35' E 010°19'0 0.0
2015-May-24 04:33N 43°35' E 010°19'0 0.0
2015-May-24 03:34N 43°35' E 010°19'0 0.0
2015-May-24 02:33N 43°35' E 010°19'0 0.0
2015-May-24 01:33N 43°35' E 010°19'0 0.0
2015-May-24 00:33N 43°35' E 010°19'0 0.0
2015-May-23 23:33N 43°35' E 010°19'0 0.0
2015-May-23 22:33N 43°35' E 010°19'0 0.0
2015-May-23 21:34N 43°35' E 010°19'0 0.0
2015-May-23 20:33N 43°35' E 010°19'0 0.0
2015-May-23 19:33N 43°35' E 010°19'0 0.0
2015-May-23 18:33N 43°35' E 010°19'0 0.0
2015-May-23 17:34N 43°35' E 010°19'0 0.0
2015-May-23 16:33N 43°35' E 010°19'0 0.0
2015-May-23 15:34N 43°35' E 010°19'0 0.0
2015-May-23 14:34N 43°35' E 010°19'0 0.0
2015-May-23 13:33N 43°35' E 010°19'0 0.0
2015-May-23 12:33N 43°35' E 010°19'0 0.0
2015-May-23 11:34N 43°35' E 010°19'0 0.0
2015-May-23 10:33N 43°35' E 010°19'0 0.0
2015-May-23 09:33N 43°35' E 010°19'0 0.0
2015-May-23 08:33N 43°35' E 010°19'0 0.0
2015-May-23 07:33N 43°35' E 010°19'0 0.0
2015-May-23 06:33N 43°35' E 010°19'0 0.0
2015-May-23 05:34N 43°35' E 010°19'0 0.0
2015-May-23 04:33N 43°35' E 010°19'0 0.0
2015-May-23 03:34N 43°35' E 010°19'0 0.0
2015-May-23 02:33N 43°35' E 010°19'0 0.0
2015-May-23 01:34N 43°35' E 010°19'0 0.0
2015-May-23 00:33N 43°35' E 010°19'0 0.0
2015-May-22 23:34N 43°35' E 010°19'0 0.0
2015-May-22 22:33N 43°35' E 010°19'0 0.0
2015-May-22 21:33N 43°35' E 010°19'0 0.0
2015-May-22 20:33N 43°35' E 010°19'0 0.0
2015-May-22 19:33N 43°35' E 010°19'0 0.0
2015-May-22 18:33N 43°35' E 010°19'0 0.0
2015-May-22 17:34N 43°35' E 010°19'0 0.0
2015-May-22 16:33N 43°35' E 010°19'0 0.0
2015-May-22 15:34N 43°35' E 010°19'0 0.0
2015-May-22 14:34N 43°35' E 010°19'0 0.0
2015-May-22 13:33N 43°35' E 010°19'0 0.0
2015-May-22 12:34N 43°35' E 010°19'0 0.0
2015-May-22 11:34N 43°35' E 010°19'0 0.0
2015-May-22 10:34N 43°35' E 010°19'0 0.0
2015-May-22 09:33N 43°35' E 010°19'0 0.0
2015-May-22 08:34N 43°35' E 010°19'0 0.0
2015-May-22 07:33N 43°35' E 010°19'0 0.0
2015-May-22 06:34N 43°35' E 010°19'0 0.0
2015-May-22 05:34N 43°35' E 010°19'0 0.0
2015-May-22 04:34N 43°35' E 010°19'0 0.0
2015-May-22 03:33N 43°35' E 010°19'0 0.0
2015-May-22 02:34N 43°35' E 010°19'0 0.0
2015-May-22 01:34N 43°35' E 010°19'0 0.0
2015-May-22 00:33N 43°35' E 010°19'0 0.0
2015-May-21 23:34N 43°35' E 010°19'0 0.0
2015-May-21 22:34N 43°35' E 010°19'0 0.0
2015-May-21 21:34N 43°35' E 010°19'0 0.0
2015-May-21 20:34N 43°35' E 010°19'0 0.0
2015-May-21 19:33N 43°35' E 010°19'0 0.0
2015-May-21 18:34N 43°35' E 010°19'0 0.0
2015-May-21 17:34N 43°35' E 010°19'0 0.0
2015-May-21 16:34N 43°35' E 010°19'0 0.0
2015-May-21 15:34N 43°35' E 010°19'0 0.0
2015-May-21 14:34N 43°35' E 010°19'0 0.0
2015-May-21 13:34N 43°35' E 010°19'0 0.0
2015-May-21 12:34N 43°35' E 010°19'0 0.0
2015-May-21 11:33N 43°35' E 010°19'0 0.0
2015-May-21 10:34N 43°35' E 010°19'0 0.4
2015-May-21 09:34N 43°34' E 010°19'5 5.5
2015-May-21 08:33N 43°30' E 010°14'1313.1
2015-May-21 07:34N 43°21' E 010°01'1414.4
2015-May-21 06:34N 43°17' E 009°42'1514.6
2015-May-21 05:33N 43°15' E 009°22'1514.3
2015-May-21 04:30N 43°12' E 009°02'13413.5
2015-May-20 18:34N 43°03' E 005°59'5 5.2
2015-May-20 17:33N 43°06' E 005°54'0 0.0
2015-May-20 16:33N 43°06' E 005°54'0 0.0
2015-May-20 15:32N 43°06' E 005°54'0 0.0
2015-May-20 14:32N 43°06' E 005°54'0 0.0
2015-May-20 13:28N 43°06' E 005°54'0 0.0
2015-May-20 12:31N 43°06' E 005°54'0 0.0
2015-May-20 11:09N 43°06' E 005°54'0 0.0
2015-May-20 10:33N 43°06' E 005°54'0 0.0
2015-May-20 09:33N 43°06' E 005°54'0 0.0
2015-May-20 08:32N 43°06' E 005°54'0 0.0
2015-May-20 07:32N 43°06' E 005°54'0 0.0
2015-May-20 06:31N 43°06' E 005°54'0 0.0
2015-May-20 05:31N 43°06' E 005°54'0 0.0
2015-May-20 04:31N 43°06' E 005°54'0 0.0
2015-May-20 03:33N 43°06' E 005°54'0 0.0
2015-May-20 02:33N 43°06' E 005°54'0 0.0
2015-May-20 01:32N 43°06' E 005°54'0 0.0
2015-May-20 00:32N 43°06' E 005°54'0 0.0
2015-May-19 23:31N 43°06' E 005°54'0 0.0
2015-May-19 22:32N 43°06' E 005°54'0 0.0
2015-May-19 21:31N 43°06' E 005°54'0 0.0
2015-May-19 20:33N 43°06' E 005°54'0 0.0
2015-May-19 19:33N 43°06' E 005°54'0 0.0
2015-May-19 18:32N 43°06' E 005°54'0 0.0
2015-May-19 17:32N 43°06' E 005°54'0 0.0
2015-May-19 16:31N 43°06' E 005°54'0 0.0
2015-May-19 15:31N 43°06' E 005°54'0 0.0
2015-May-19 14:30N 43°06' E 005°54'0 0.0
2015-May-19 13:33N 43°06' E 005°54'0 0.0
2015-May-19 12:33N 43°06' E 005°54'0 0.0
2015-May-19 11:29N 43°06' E 005°54'0 0.0
2015-May-19 10:32N 43°06' E 005°54'0 0.0
2015-May-19 09:31N 43°06' E 005°54'0 0.0
2015-May-19 08:31N 43°06' E 005°54'0 0.0
2015-May-19 07:34N 43°06' E 005°54'0 0.0
2015-May-19 06:33N 43°06' E 005°54'0 0.0
2015-May-19 05:33N 43°06' E 005°54'0 0.0
2015-May-19 04:32N 43°06' E 005°54'0 0.0
2015-May-19 03:32N 43°06' E 005°54'0 0.0
2015-May-19 02:31N 43°06' E 005°54'  

Dump ship's entire track history